Time;durP1;ratioP1;P1;durP2;ratioP2;P2;SDS_P1;SDS_P2;PMS_P1;PMS_P2;Temp;Humidity;BMP_temperature;BMP_pressure;BME280_temperature;BME280_humidity;BME280_pressure;Samples;Min_cycle;Max_cycle;Signal;HPM_P1;HPM_P2
2021/06/20 00:00:28;;;;;;;35.33;22.45;;;;;;;20.41;100.00;97415.03;5048852;28;20053;-78
2021/06/20 00:03:06;;;;;;;29.55;20.27;;;;;;;20.32;100.00;97397.31;5024117;28;20096;-80
2021/06/20 00:05:42;;;;;;;27.08;21.23;;;;;;;20.34;100.00;97400.47;5014120;28;20362;-80
2021/06/20 00:08:09;;;;;;;27.77;20.90;;;;;;;20.32;100.00;97389.06;5023374;28;20049;-81
2021/06/20 00:10:38;;;;;;;32.90;21.98;;;;;;;20.30;100.00;97388.69;5050963;28;20501;-81
2021/06/20 00:13:06;;;;;;;33.63;21.10;;;;;;;20.25;100.00;97380.78;4998450;28;20046;-81
2021/06/20 00:15:38;;;;;;;33.38;21.50;;;;;;;20.24;100.00;97380.00;5014819;28;20038;-81
2021/06/20 00:18:06;;;;;;;30.42;20.60;;;;;;;20.21;100.00;97375.22;5014778;28;20049;-81
2021/06/20 00:20:39;;;;;;;31.65;20.27;;;;;;;20.20;100.00;97383.88;4997349;28;20326;-82
2021/06/20 00:23:06;;;;;;;32.63;22.20;;;;;;;20.19;100.00;97385.03;5013349;28;20058;-81
2021/06/20 00:25:33;;;;;;;35.95;24.85;;;;;;;20.20;100.00;97394.88;4996344;28;20046;-81
2021/06/20 00:28:00;;;;;;;37.85;28.52;;;;;;;20.24;100.00;97401.19;4997202;28;20060;-82
2021/06/20 00:30:30;;;;;;;34.90;24.65;;;;;;;20.23;100.00;97413.34;4998184;28;20050;-82
2021/06/20 00:32:56;;;;;;;35.92;23.73;;;;;;;20.19;100.00;97407.03;5016124;28;20046;-81
2021/06/20 00:35:23;;;;;;;39.30;26.30;;;;;;;20.14;100.00;97405.44;5014522;28;20049;-81
2021/06/20 00:37:50;;;;;;;36.05;23.30;;;;;;;20.10;100.00;97395.59;4997052;28;20053;-81
2021/06/20 00:40:19;;;;;;;32.65;22.90;;;;;;;20.11;100.00;97386.16;4979551;28;20053;-81
2021/06/20 00:42:46;;;;;;;40.05;22.17;;;;;;;20.07;100.00;97377.91;4995293;28;20061;-81
2021/06/20 00:45:16;;;;;;;31.55;21.02;;;;;;;19.98;100.00;97360.16;5011647;28;20060;-81
2021/06/20 00:47:43;;;;;;;31.25;21.95;;;;;;;19.88;100.00;97365.22;4996462;28;20048;-80
2021/06/20 00:50:12;;;;;;;42.95;23.40;;;;;;;19.82;100.00;97369.47;5013520;28;20434;-81
2021/06/20 00:52:40;;;;;;;35.30;23.17;;;;;;;19.86;100.00;97362.06;5019730;28;20050;-80
2021/06/20 00:55:08;;;;;;;33.45;22.80;;;;;;;19.88;100.00;97354.22;5004543;28;20237;-82
2021/06/20 00:57:35;;;;;;;30.40;20.92;;;;;;;19.88;100.00;97343.22;5014882;28;20053;-82
2021/06/20 01:00:06;;;;;;;27.67;21.48;;;;;;;19.86;100.00;97322.81;4998588;28;20073;-81
2021/06/20 01:02:33;;;;;;;33.50;21.98;;;;;;;19.79;100.00;97307.09;5013594;28;20046;-81
2021/06/20 01:05:01;;;;;;;31.17;23.05;;;;;;;19.81;100.00;97301.19;4997774;28;20042;-82
2021/06/20 01:07:28;;;;;;;33.15;24.23;;;;;;;19.63;100.00;97292.03;5021952;28;20099;-80
2021/06/20 01:09:54;;;;;;;33.22;23.67;;;;;;;19.60;100.00;97296.34;5034004;28;20104;-81
2021/06/20 01:12:22;;;;;;;38.70;25.42;;;;;;;19.62;100.00;97294.00;5033977;28;20096;-81
2021/06/20 01:14:48;;;;;;;41.13;26.13;;;;;;;19.61;100.00;97297.13;5000167;28;20395;-82
2021/06/20 01:17:16;;;;;;;36.42;25.55;;;;;;;19.64;100.00;97299.88;5002015;28;20111;-81
2021/06/20 01:19:44;;;;;;;32.50;25.77;;;;;;;19.72;100.00;97298.78;5016795;28;20426;-81
2021/06/20 01:22:28;;;;;;;36.03;25.02;;;;;;;19.76;100.00;97296.84;4998673;28;20053;-81
2021/06/20 01:25:08;;;;;;;35.08;24.30;;;;;;;19.82;100.00;97294.53;5014293;28;20072;-81
2021/06/20 01:27:42;;;;;;;35.85;24.23;;;;;;;19.81;100.00;97292.94;4985596;28;20054;-80
2021/06/20 01:30:18;;;;;;;27.50;22.23;;;;;;;19.80;100.00;97296.84;5003030;28;20092;-81
2021/06/20 01:32:45;;;;;;;31.58;21.75;;;;;;;19.74;100.00;97298.41;5003196;28;20053;-82
2021/06/20 01:35:14;;;;;;;33.40;23.75;;;;;;;19.69;100.00;97304.25;5019030;28;20045;-82
2021/06/20 01:37:42;;;;;;;32.67;23.92;;;;;;;19.69;100.00;97302.28;5021161;28;20046;-81
2021/06/20 01:40:12;;;;;;;35.95;25.70;;;;;;;19.68;100.00;97297.97;5007345;28;20041;-81
2021/06/20 01:42:39;;;;;;;36.08;25.60;;;;;;;19.69;100.00;97309.75;5024953;28;20084;-80
2021/06/20 01:45:08;;;;;;;32.15;24.13;;;;;;;19.66;100.00;97305.03;5023663;28;20046;-80
2021/06/20 01:47:36;;;;;;;37.22;23.77;;;;;;;19.67;100.00;97310.13;5001834;28;20045;-82
2021/06/20 01:50:09;;;;;;;33.05;23.92;;;;;;;19.65;100.00;97312.47;5021137;28;20046;-80
2021/06/20 01:52:36;;;;;;;28.25;22.17;;;;;;;19.65;100.00;97323.44;5021977;28;20050;-80
2021/06/20 01:55:05;;;;;;;31.15;22.95;;;;;;;19.54;100.00;97319.03;5037471;28;20048;-80
2021/06/20 01:57:35;;;;;;;29.10;22.00;;;;;;;19.51;100.00;97323.34;5064353;28;20048;-79
2021/06/20 02:00:14;;;;;;;31.20;21.13;;;;;;;19.50;100.00;97318.22;5047185;28;20355;-81
2021/06/20 02:02:42;;;;;;;29.15;21.75;;;;;;;19.49;100.00;97319.38;5048855;28;20041;-80
2021/06/20 02:05:10;;;;;;;31.55;22.10;;;;;;;19.46;100.00;97295.47;5048322;28;20048;-81
2021/06/20 02:07:38;;;;;;;28.58;22.65;;;;;;;19.43;100.00;97285.22;5064706;28;20523;-81
2021/06/20 02:10:12;;;;;;;30.73;22.42;;;;;;;19.41;100.00;97285.59;5059665;28;20041;-80
2021/06/20 02:12:40;;;;;;;32.58;23.60;;;;;;;19.35;100.00;97284.38;5046709;28;20048;-81
2021/06/20 02:15:09;;;;;;;35.85;23.65;;;;;;;19.30;100.00;97285.47;5049602;28;20049;-81
2021/06/20 02:17:38;;;;;;;26.15;22.13;;;;;;;19.22;100.00;97285.81;5048754;28;20086;-80
2021/06/20 02:20:07;;;;;;;28.58;22.15;;;;;;;19.20;100.00;97291.69;5049691;28;20135;-80
2021/06/20 02:22:33;;;;;;;30.55;23.45;;;;;;;19.13;100.00;97290.81;5049726;28;20041;-80
2021/06/20 02:25:00;;;;;;;32.33;23.52;;;;;;;19.13;100.00;97291.63;5049326;28;20063;-80
2021/06/20 02:27:27;;;;;;;30.67;23.58;;;;;;;19.11;100.00;97276.69;5050434;28;20053;-80
2021/06/20 02:29:55;;;;;;;32.25;23.58;;;;;;;19.13;100.00;97279.84;5033225;28;20076;-79
2021/06/20 02:32:24;;;;;;;30.85;23.15;;;;;;;19.06;100.00;97282.53;5028533;28;20042;-79
2021/06/20 02:34:52;;;;;;;30.90;24.83;;;;;;;19.03;100.00;97284.09;5008384;28;20057;-83
2021/06/20 02:37:20;;;;;;;32.80;25.30;;;;;;;19.00;100.00;97282.09;5011080;28;20033;-83
2021/06/20 02:39:47;;;;;;;35.50;24.20;;;;;;;18.99;100.00;97280.53;5021245;28;20042;-82
2021/06/20 02:42:14;;;;;;;32.45;24.50;;;;;;;18.98;100.00;97278.94;5021157;28;20049;-80
2021/06/20 02:44:41;;;;;;;38.70;24.92;;;;;;;18.85;100.00;97280.38;5021670;28;20128;-82
2021/06/20 02:47:08;;;;;;;33.05;22.77;;;;;;;18.78;100.00;97279.53;5041992;28;20052;-81
2021/06/20 02:49:37;;;;;;;33.65;22.38;;;;;;;18.79;100.00;97292.09;5042917;28;20095;-81
2021/06/20 02:52:06;;;;;;;34.80;23.27;;;;;;;18.80;100.00;97293.66;5007868;28;20312;-81
2021/06/20 02:54:34;;;;;;;33.35;23.85;;;;;;;18.89;100.00;97297.66;5018537;28;20526;-82
2021/06/20 02:57:05;;;;;;;31.75;23.27;;;;;;;18.90;100.00;97282.78;5014799;28;20060;-80
2021/06/20 02:59:31;;;;;;;37.05;23.80;;;;;;;18.89;100.00;97281.19;4999776;28;20041;-80
2021/06/20 03:01:58;;;;;;;27.08;22.27;;;;;;;18.85;100.00;97285.06;5036413;28;20049;-81
2021/06/20 03:04:25;;;;;;;32.97;22.63;;;;;;;18.82;100.00;97277.59;4999333;28;20064;-79
2021/06/20 03:06:52;;;;;;;31.95;21.60;;;;;;;18.84;100.00;97281.53;5016265;28;20072;-81
2021/06/20 03:09:18;;;;;;;31.27;22.48;;;;;;;18.88;100.00;97273.34;5036783;28;20053;-81
2021/06/20 03:11:46;;;;;;;28.45;21.95;;;;;;;18.88;100.00;97279.63;5038062;28;20041;-81
2021/06/20 03:14:14;;;;;;;26.27;21.42;;;;;;;18.90;100.00;97273.75;5018227;28;20046;-82
2021/06/20 03:16:44;;;;;;;30.40;22.15;;;;;;;18.93;100.00;97265.56;5051699;22;20041;-81
2021/06/20 03:19:12;;;;;;;28.52;22.20;;;;;;;18.95;100.00;97257.75;5036898;28;20048;-81
2021/06/20 03:21:40;;;;;;;34.97;22.17;;;;;;;19.02;100.00;97255.06;5037182;28;20110;-80
2021/06/20 03:24:06;;;;;;;30.98;21.60;;;;;;;19.07;100.00;97262.94;5037771;28;20117;-80
2021/06/20 03:26:33;;;;;;;34.20;21.63;;;;;;;19.12;100.00;97256.34;5037532;28;20045;-81
2021/06/20 03:29:02;;;;;;;34.88;20.58;;;;;;;19.19;100.00;97245.41;5020064;28;20068;-80
2021/06/20 03:31:29;;;;;;;34.15;21.35;;;;;;;19.26;100.00;97239.97;5020210;28;20244;-81
2021/06/20 03:33:58;;;;;;;26.20;20.92;;;;;;;19.27;100.00;97234.13;5038421;28;20038;-79
2021/06/20 03:36:26;;;;;;;29.15;21.20;;;;;;;19.34;100.00;97232.56;5047823;28;20068;-81
2021/06/20 03:38:53;;;;;;;29.40;20.23;;;;;;;19.38;100.00;97233.44;5048976;28;20280;-79
2021/06/20 03:41:19;;;;;;;28.25;20.25;;;;;;;19.48;100.00;97224.47;5016552;28;20045;-78
2021/06/20 03:43:46;;;;;;;27.13;18.80;;;;;;;19.59;100.00;97231.59;5040728;28;20041;-82
2021/06/20 03:46:13;;;;;;;28.25;18.58;;;;;;;19.77;100.00;97229.75;5016982;28;20107;-80
2021/06/20 03:48:41;;;;;;;26.23;17.88;;;;;;;19.94;100.00;97232.97;5015257;28;20037;-80
2021/06/20 03:51:07;;;;;;;29.60;18.40;;;;;;;20.05;100.00;97217.31;5015766;28;20103;-79
2021/06/20 03:53:34;;;;;;;23.38;17.35;;;;;;;20.14;100.00;97212.25;5032856;28;20052;-79
2021/06/20 03:56:03;;;;;;;24.20;17.20;;;;;;;20.33;100.00;97209.19;5033752;28;20037;-79
2021/06/20 03:58:30;;;;;;;25.33;17.65;;;;;;;20.46;100.00;97207.66;5033242;28;20072;-82
2021/06/20 04:00:58;;;;;;;20.75;16.00;;;;;;;20.65;100.00;97209.28;5017441;28;20524;-81
2021/06/20 04:03:24;;;;;;;23.70;16.50;;;;;;;20.86;100.00;97218.31;5037281;28;20481;-82
2021/06/20 04:05:51;;;;;;;27.48;15.80;;;;;;;20.99;100.00;97218.72;5019674;28;20041;-80
2021/06/20 04:08:18;;;;;;;23.08;15.32;;;;;;;21.10;100.00;97227.81;5037389;28;20045;-83
2021/06/20 04:10:45;;;;;;;22.55;14.93;;;;;;;21.23;100.00;97233.69;5020552;28;20059;-81
2021/06/20 04:13:11;;;;;;;23.73;15.50;;;;;;;21.34;100.00;97228.97;5001659;28;20057;-79
2021/06/20 04:15:38;;;;;;;28.67;18.95;;;;;;;21.39;100.00;97218.34;5035026;28;20057;-79
2021/06/20 04:18:07;;;;;;;27.75;15.65;;;;;;;21.46;100.00;97223.06;5034376;28;20123;-79
2021/06/20 04:20:34;;;;;;;26.38;18.10;;;;;;;21.52;100.00;97214.00;5017080;28;20053;-79
2021/06/20 04:23:00;;;;;;;28.77;19.02;;;;;;;21.57;100.00;97224.63;5017162;28;20490;-80
2021/06/20 04:25:27;;;;;;;22.10;15.52;;;;;;;21.63;100.00;97219.47;5036761;28;20052;-79
2021/06/20 04:27:54;;;;;;;23.75;14.13;;;;;;;21.70;100.00;97217.47;5021331;28;20045;-79
2021/06/20 04:30:22;;;;;;;20.58;14.52;;;;;;;21.83;100.00;97220.63;5039262;28;20054;-80
2021/06/20 04:32:50;;;;;;;19.05;13.68;;;;;;;21.89;100.00;97216.28;5022070;28;20042;-81
2021/06/20 04:35:18;;;;;;;17.55;13.73;;;;;;;22.01;100.00;97224.13;5019173;28;20049;-81
2021/06/20 04:37:47;;;;;;;19.88;13.68;;;;;;;22.07;100.00;97217.00;5018234;28;20084;-81
2021/06/20 04:40:18;;;;;;;18.58;13.18;;;;;;;22.18;100.00;97226.03;5016974;28;20094;-82
2021/06/20 04:42:54;;;;;;;19.42;13.63;;;;;;;22.18;100.00;97212.25;5035133;28;20045;-82
2021/06/20 04:45:20;;;;;;;17.58;13.52;;;;;;;22.26;100.00;97216.53;5035219;28;20049;-81
2021/06/20 04:47:48;;;;;;;19.98;13.60;;;;;;;22.37;100.00;97229.50;5001399;28;20141;-82
2021/06/20 04:50:15;;;;;;;19.83;13.43;;;;;;;22.42;100.00;97226.31;5017182;28;20091;-81
2021/06/20 04:52:44;;;;;;;19.92;12.38;;;;;;;22.50;100.00;97225.09;5035607;28;20049;-83
2021/06/20 04:55:12;;;;;;;22.30;13.07;;;;;;;22.55;100.00;97219.16;5035194;28;20466;-82
2021/06/20 04:57:39;;;;;;;21.08;12.52;;;;;;;22.63;100.00;97220.72;5017748;28;20038;-80
2021/06/20 05:00:08;;;;;;;22.05;12.77;;;;;;;22.60;100.00;97210.44;5033955;28;20060;-81
2021/06/20 05:02:39;;;;;;;20.38;12.48;;;;;;;22.65;100.00;97219.13;5011106;28;20061;-81
2021/06/20 05:05:10;;;;;;;15.52;11.98;;;;;;;22.61;100.00;97212.03;5012362;28;20285;-80
2021/06/20 05:07:40;;;;;;;20.83;12.02;;;;;;;22.66;100.00;97223.44;5013641;28;20075;-80
2021/06/20 05:10:08;;;;;;;20.70;11.95;;;;;;;22.68;100.00;97207.28;5022200;28;20049;-82
2021/06/20 05:12:42;;;;;;;15.02;11.90;;;;;;;22.68;100.00;97214.78;5022556;28;20049;-82
2021/06/20 05:15:16;;;;;;;15.18;11.32;;;;;;;22.73;100.00;97206.84;5014280;28;20034;-82
2021/06/20 05:17:50;;;;;;;22.80;11.82;;;;;;;22.79;100.00;97204.41;5022540;28;20052;-81
2021/06/20 05:20:24;;;;;;;20.75;12.15;;;;;;;22.84;100.00;97199.25;5034067;28;20466;-81
2021/06/20 05:22:52;;;;;;;19.50;11.68;;;;;;;22.91;100.00;97210.28;5023620;28;20069;-80
2021/06/20 05:25:23;;;;;;;13.90;11.30;;;;;;;23.10;100.00;97210.91;5019091;28;20052;-82
2021/06/20 05:27:55;;;;;;;14.00;10.98;;;;;;;23.27;100.00;97204.44;5022587;28;20096;-79
2021/06/20 05:30:22;;;;;;;18.20;11.43;;;;;;;23.43;100.00;97201.97;5013067;28;20461;-79
2021/06/20 05:32:53;;;;;;;18.30;10.73;;;;;;;23.72;100.00;97202.47;4996918;28;20517;-82
2021/06/20 05:35:20;;;;;;;15.18;11.15;;;;;;;23.99;100.00;97206.88;4995555;28;20049;-80
2021/06/20 05:37:48;;;;;;;15.63;11.10;;;;;;;24.11;100.00;97198.06;4996517;28;20042;-82
2021/06/20 05:40:15;;;;;;;13.38;11.25;;;;;;;24.32;100.00;97194.25;5014867;28;20038;-79
2021/06/20 05:42:41;;;;;;;26.50;11.52;;;;;;;24.39;100.00;97196.91;5007820;28;20134;-81
2021/06/20 05:45:08;;;;;;;15.23;11.20;;;;;;;24.44;100.00;97198.44;5033968;28;20042;-80
2021/06/20 05:47:35;;;;;;;15.10;11.18;;;;;;;24.53;100.00;97193.94;5020892;28;20042;-81
2021/06/20 05:50:02;;;;;;;15.13;11.00;;;;;;;24.49;100.00;97200.75;5000002;28;20049;-80
2021/06/20 05:52:30;;;;;;;17.38;10.82;;;;;;;24.41;100.00;97197.28;5033271;28;20047;-82
2021/06/20 05:54:56;;;;;;;15.80;10.98;;;;;;;24.44;100.00;97198.44;5020355;28;20045;-81
2021/06/20 05:57:23;;;;;;;17.48;11.10;;;;;;;24.40;100.00;97206.00;5038033;28;20045;-80
2021/06/20 05:59:49;;;;;;;21.83;10.60;;;;;;;24.45;100.00;97198.00;5019974;28;20052;-79
2021/06/20 06:02:18;;;;;;;21.75;11.35;;;;;;;24.53;100.00;97193.16;5038086;28;20052;-79
2021/06/20 06:04:45;;;;;;;16.85;11.13;;;;;;;24.71;100.00;97199.22;5038000;28;20041;-80
2021/06/20 06:07:14;;;;;;;14.40;10.30;;;;;;;25.00;100.00;97189.31;5037456;28;20042;-82
2021/06/20 06:09:41;;;;;;;16.73;9.75;;;;;;;25.22;100.00;97186.97;5037658;28;20049;-80
2021/06/20 06:12:08;;;;;;;14.63;10.20;;;;;;;25.22;100.00;97189.72;5037024;28;20445;-80
2021/06/20 06:14:35;;;;;;;14.25;9.60;;;;;;;25.52;100.00;97184.09;5018561;28;20072;-81
2021/06/20 06:17:01;;;;;;;12.10;9.23;;;;;;;25.73;100.00;97192.00;5020314;28;20049;-79
2021/06/20 06:19:28;;;;;;;14.70;9.00;;;;;;;25.96;100.00;97194.72;5043166;28;20046;-80
2021/06/20 06:21:55;;;;;;;12.95;8.93;;;;;;;26.07;100.00;97202.81;5045268;28;20077;-78
2021/06/20 06:24:25;;;;;;;12.05;8.38;;;;;;;26.31;100.00;97200.78;5043231;28;20072;-78
2021/06/20 06:26:54;;;;;;;12.32;9.07;;;;;;;26.53;100.00;97207.47;5042486;28;20061;-80
2021/06/20 06:29:20;;;;;;;14.60;9.07;;;;;;;26.60;100.00;97213.63;5022761;28;20103;-81
2021/06/20 06:32:08;;;;;;;12.55;8.07;;;;;;;26.82;100.00;97205.63;5024224;28;20072;-81
2021/06/20 06:34:37;;;;;;;11.02;8.50;;;;;;;26.83;100.00;97212.75;5025071;28;20064;-81
2021/06/20 06:37:04;;;;;;;13.20;8.73;;;;;;;27.03;100.00;97207.91;5042819;28;20067;-79
2021/06/20 06:39:32;;;;;;;15.52;8.38;;;;;;;27.21;100.00;97201.91;5043313;28;20049;-81
2021/06/20 06:41:59;;;;;;;17.23;8.80;;;;;;;27.29;100.00;97205.28;5034610;28;20053;-80
2021/06/20 06:44:27;;;;;;;13.13;8.98;;;;;;;27.30;100.00;97206.84;5023197;28;20291;-80
2021/06/20 06:46:54;;;;;;;14.82;9.00;;;;;;;27.28;100.00;97214.84;5015567;28;20077;-79
2021/06/20 06:49:21;;;;;;;12.38;8.70;;;;;;;27.12;100.00;97215.63;5024127;28;20140;-80
2021/06/20 06:51:49;;;;;;;12.32;9.40;;;;;;;27.33;100.00;97219.88;5031990;28;20481;-81
2021/06/20 06:54:17;;;;;;;10.48;9.32;;;;;;;27.35;100.00;97221.00;5025560;28;20280;-79
2021/06/20 06:56:45;;;;;;;11.43;8.50;;;;;;;27.47;100.00;97222.31;5008994;28;20052;-81
2021/06/20 06:59:12;;;;;;;12.25;8.25;;;;;;;27.78;100.00;97229.06;5024681;28;20041;-80
2021/06/20 07:01:40;;;;;;;14.02;8.32;;;;;;;28.08;100.00;97236.25;5000703;28;20037;-81
2021/06/20 07:04:10;;;;;;;10.32;8.45;;;;;;;28.00;100.00;97227.28;4999517;28;20425;-81
2021/06/20 07:06:37;;;;;;;14.70;8.23;;;;;;;28.18;100.00;97218.47;4998286;28;20042;-80
2021/06/20 07:09:04;;;;;;;9.55;7.18;;;;;;;28.24;100.00;97230.59;5016247;28;20049;-81
2021/06/20 07:11:31;;;;;;;11.90;7.85;;;;;;;28.33;100.00;97230.75;4997695;28;20046;-79
2021/06/20 07:13:58;;;;;;;9.10;7.55;;;;;;;28.56;100.00;97238.81;5028894;28;20052;-79
2021/06/20 07:16:24;;;;;;;11.02;8.20;;;;;;;28.79;100.00;97241.31;5008352;28;20042;-82
2021/06/20 07:18:54;;;;;;;12.35;7.90;;;;;;;28.84;100.00;97240.78;5025734;28;20043;-80
2021/06/20 07:21:20;;;;;;;12.40;7.20;;;;;;;28.95;100.00;97243.22;5005877;28;20061;-81
2021/06/20 07:23:47;;;;;;;9.52;7.15;;;;;;;29.00;100.00;97237.88;5006926;28;20572;-80
2021/06/20 07:26:14;;;;;;;9.15;6.85;;;;;;;28.76;100.00;97247.00;5008852;28;20046;-81
2021/06/20 07:28:40;;;;;;;11.23;7.30;;;;;;;28.73;100.00;97243.09;5004029;28;20269;-81
2021/06/20 07:31:07;;;;;;;12.25;6.35;;;;;;;28.95;100.00;97252.38;5023853;28;20046;-80
2021/06/20 07:33:34;;;;;;;9.35;6.50;;;;;;;29.04;100.00;97246.13;5019518;28;20494;-80
2021/06/20 07:36:01;;;;;;;10.40;5.93;;;;;;;28.93;100.00;97254.06;5006673;28;20050;-81
2021/06/20 07:38:28;;;;;;;11.93;6.10;;;;;;;28.98;100.00;97250.72;4995278;28;20132;-79
2021/06/20 07:40:54;;;;;;;13.48;6.05;;;;;;;28.95;100.00;97257.16;5023842;28;20056;-81
2021/06/20 07:43:25;;;;;;;12.57;6.20;;;;;;;28.91;100.00;97259.25;5005383;28;20502;-81
2021/06/20 07:45:53;;;;;;;13.55;5.80;;;;;;;29.14;100.00;97256.16;5020336;28;20092;-81
2021/06/20 07:48:20;;;;;;;13.27;5.90;;;;;;;29.01;100.00;97258.16;5017777;28;20120;-81
2021/06/20 07:50:46;;;;;;;14.60;6.00;;;;;;;29.38;100.00;97259.41;5022627;28;20449;-80
2021/06/20 07:53:13;;;;;;;13.55;6.03;;;;;;;29.47;100.00;97256.72;5005292;28;20049;-80
2021/06/20 07:55:42;;;;;;;16.13;6.30;;;;;;;29.70;100.00;97253.53;4989556;28;20049;-79
2021/06/20 07:58:09;;;;;;;26.27;6.80;;;;;;;29.64;100.00;97258.91;5022794;28;20045;-80
2021/06/20 08:00:36;;;;;;;19.73;6.55;;;;;;;29.92;100.00;97262.75;5033099;28;20041;-79
2021/06/20 08:03:02;;;;;;;17.42;6.30;;;;;;;29.62;100.00;97260.59;5025537;28;20042;-81
2021/06/20 08:05:29;;;;;;;18.70;6.75;;;;;;;29.61;100.00;97264.59;4999034;28;20060;-82
2021/06/20 08:07:56;;;;;;;16.60;5.90;;;;;;;29.79;100.00;97267.59;5016590;28;20323;-83
2021/06/20 08:10:23;;;;;;;22.73;6.40;;;;;;;29.71;100.00;97268.28;5007498;28;20144;-82
2021/06/20 08:12:49;;;;;;;18.48;6.43;;;;;;;29.29;100.00;97262.88;5026033;28;20046;-82
2021/06/20 08:15:16;;;;;;;24.60;6.70;;;;;;;29.37;100.00;97269.75;5003770;28;20550;-81
2021/06/20 08:17:44;;;;;;;21.00;6.88;;;;;;;29.24;100.00;97266.22;4998773;28;20107;-82
2021/06/20 08:20:12;;;;;;;25.08;7.35;;;;;;;29.35;100.00;97258.28;4997838;28;20141;-83
2021/06/20 08:22:41;;;;;;;32.38;6.95;;;;;;;29.13;100.00;97262.19;4999185;28;20292;-82
2021/06/20 08:25:09;;;;;;;28.13;6.85;;;;;;;29.06;100.00;97257.63;5024439;28;20038;-83
2021/06/20 08:27:37;;;;;;;30.92;7.03;;;;;;;28.87;100.00;97256.59;5027712;28;20049;-83
2021/06/20 08:30:06;;;;;;;23.75;6.53;;;;;;;28.87;100.00;97269.75;5008210;28;20064;-83
2021/06/20 08:32:33;;;;;;;25.35;6.80;;;;;;;28.91;100.00;97268.41;5011181;28;20581;-81
2021/06/20 08:35:00;;;;;;;33.15;7.55;;;;;;;28.95;100.00;97262.75;5006987;28;20041;-83
2021/06/20 08:37:27;;;;;;;23.60;6.75;;;;;;;28.92;100.00;97264.41;5024668;28;20046;-82
2021/06/20 08:39:55;;;;;;;32.17;6.85;;;;;;;29.08;100.00;97265.53;5009376;28;20045;-81
2021/06/20 08:42:22;;;;;;;31.10;6.45;;;;;;;29.21;100.00;97267.13;5023914;28;20088;-83
2021/06/20 08:44:48;;;;;;;33.40;6.97;;;;;;;29.24;100.00;97280.16;5025115;28;20076;-81
2021/06/20 08:47:17;;;;;;;25.45;6.82;;;;;;;29.58;100.00;97283.03;5027296;28;20034;-82
2021/06/20 08:49:45;;;;;;;24.20;6.93;;;;;;;29.57;100.00;97275.91;5009102;28;20116;-81
2021/06/20 08:52:12;;;;;;;25.48;7.03;;;;;;;29.82;100.00;97288.25;5007789;28;20042;-81
2021/06/20 08:55:00;;;;;;;21.58;6.70;;;;;;;29.76;100.00;97281.66;5023586;28;20042;-81
2021/06/20 08:57:32;;;;;;;32.85;7.03;;;;;;;29.65;100.00;97273.66;5026201;28;20038;-82
2021/06/20 08:59:59;;;;;;;31.95;7.07;;;;;;;29.78;100.00;97279.19;5010650;28;20037;-82
2021/06/20 09:02:27;;;;;;;26.08;7.18;;;;;;;29.72;100.00;97279.00;5038629;28;20041;-81
2021/06/20 09:05:01;;;;;;;33.33;6.75;;;;;;;29.54;100.00;97264.84;5009887;28;20042;-82
2021/06/20 09:07:39;;;;;;;29.85;6.93;;;;;;;29.56;100.00;97265.97;5018251;28;20050;-81
2021/06/20 09:10:16;;;;;;;34.30;7.40;;;;;;;29.17;100.00;97271.19;5020768;28;20056;-82
2021/06/20 09:12:48;;;;;;;28.13;7.20;;;;;;;29.46;100.00;97271.88;4998798;28;20046;-80
2021/06/20 09:15:17;;;;;;;26.00;6.85;;;;;;;29.47;100.00;97277.03;5021828;28;20038;-82
2021/06/20 09:17:53;;;;;;;26.35;7.22;;;;;;;29.54;100.00;97273.22;5009079;28;20041;-85
2021/06/20 09:20:30;;;;;;;;;;;;;;;29.49;100.00;97271.00;4997985;28;20049;-83
2021/06/20 09:22:58;;;;;;;38.53;7.22;;;;;;;29.82;100.00;97254.75;4988179;28;20351;-83
2021/06/20 09:25:29;;;;;;;23.08;7.03;;;;;;;29.88;100.00;97266.91;5004456;28;20048;-82
2021/06/20 09:27:58;;;;;;;21.45;6.32;;;;;;;30.02;100.00;97266.41;5003063;28;20536;-83
2021/06/20 09:30:26;;;;;;;31.85;7.85;;;;;;;30.41;100.00;97271.41;5027168;28;20048;-82
2021/06/20 09:32:57;;;;;;;30.85;7.18;;;;;;;31.01;100.00;97259.97;5027953;28;20053;-83
2021/06/20 09:35:30;;;;;;;29.60;7.38;;;;;;;31.09;100.00;97262.03;5033555;28;20509;-82
2021/06/20 09:37:58;;;;;;;33.35;7.10;;;;;;;31.16;100.00;97249.78;5013264;28;20092;-84
2021/06/20 09:40:27;;;;;;;28.73;7.45;;;;;;;31.24;100.00;97251.84;5031663;28;20068;-83
2021/06/20 09:42:53;;;;;;;25.48;7.60;;;;;;;31.51;91.62;97248.38;5013769;28;20053;-83
2021/06/20 09:45:26;;;;;;;35.05;7.18;;;;;;;31.80;87.77;97257.13;5028208;28;20066;-83
2021/06/20 09:47:53;;;;;;;33.10;7.50;;;;;;;31.90;86.88;97252.34;5022094;28;20096;-83
2021/06/20 09:50:41;;;;;;;32.55;7.45;;;;;;;31.59;84.90;97235.63;5029612;28;20046;-84
2021/06/20 09:53:08;;;;;;;28.73;7.53;;;;;;;32.60;71.98;97245.63;5008754;28;20065;-82
2021/06/20 09:55:34;;;;;;;31.77;7.47;;;;;;;33.03;64.23;97239.59;5037258;28;20060;-83
2021/06/20 09:58:03;;;;;;;37.78;7.25;;;;;;;32.37;66.77;97246.25;5014749;28;20065;-80
2021/06/20 10:00:38;;;;;;;26.25;6.93;;;;;;;32.56;69.67;97257.03;5028977;28;20050;-83
2021/06/20 10:03:05;;;;;;;39.72;7.10;;;;;;;33.14;69.34;97247.53;5034343;28;20056;-82
2021/06/20 10:05:32;;;;;;;36.75;6.88;;;;;;;33.30;60.88;97238.69;5012386;28;20065;-83
2021/06/20 10:08:02;;;;;;;29.00;7.32;;;;;;;33.40;52.28;97245.06;5012480;28;20045;-82
2021/06/20 10:10:30;;;;;;;34.75;6.85;;;;;;;33.54;64.77;97247.16;5017593;28;20050;-85
2021/06/20 10:12:57;;;;;;;37.67;7.40;;;;;;;33.65;65.23;97253.03;5022677;28;20045;-83
2021/06/20 10:15:27;;;;;;;35.20;7.68;;;;;;;33.33;63.33;97243.38;5039237;28;20037;-83
2021/06/20 10:17:58;;;;;;;29.25;7.50;;;;;;;32.55;69.89;97230.22;5036070;28;20443;-81
2021/06/20 10:20:33;;;;;;;29.20;7.57;;;;;;;32.96;72.65;97244.75;5037777;28;20041;-83
2021/06/20 10:23:02;;;;;;;27.33;6.25;;;;;;;32.99;61.66;97236.16;5011033;28;20124;-83
2021/06/20 10:25:37;;;;;;;24.35;6.28;;;;;;;32.01;62.70;97233.06;4998260;28;20666;-81
2021/06/20 10:28:13;;;;;;;32.40;6.25;;;;;;;30.73;77.11;97223.50;5039927;28;20161;-82
2021/06/20 10:30:42;;;;;;;36.05;6.07;;;;;;;30.55;78.27;97240.16;5039413;28;20156;-83
2021/06/20 10:33:22;;;;;;;26.98;6.20;;;;;;;30.10;72.64;97248.16;5006329;28;20049;-82
2021/06/20 10:36:06;;;;;;;36.55;6.47;;;;;;;29.85;83.62;97265.03;5020411;28;20045;-81
2021/06/20 10:38:43;;;;;;;34.30;6.28;;;;;;;29.77;87.93;97242.13;5038505;28;20041;-82
2021/06/20 10:41:24;;;;;;;25.83;6.20;;;;;;;29.85;100.00;97239.91;5018185;28;20075;-82
2021/06/20 10:44:01;;;;;;;30.63;5.93;;;;;;;29.77;94.63;97228.19;5037924;28;20053;-82
2021/06/20 10:46:33;;;;;;;25.02;6.40;;;;;;;29.59;100.00;97236.38;5021364;28;20126;-81
2021/06/20 10:49:00;;;;;;;28.42;7.00;;;;;;;29.37;100.00;97232.75;5038620;28;20424;-83
2021/06/20 10:51:31;;;;;;;36.53;7.45;;;;;;;29.54;100.00;97239.75;5020821;28;20053;-83
2021/06/20 10:53:57;;;;;;;29.63;6.97;;;;;;;29.77;100.00;97228.19;5031639;28;20493;-81
2021/06/20 10:56:55;;;;;;;24.90;6.45;;;;;;;29.92;100.00;97225.69;5023568;28;20461;-82
2021/06/20 10:59:24;;;;;;;23.52;6.65;;;;;;;29.79;100.00;97211.00;5034342;28;20469;-82
2021/06/20 11:01:51;;;;;;;29.73;6.68;;;;;;;30.02;100.00;97216.94;5038456;28;20053;-83
2021/06/20 11:04:18;;;;;;;25.75;7.07;;;;;;;30.05;96.94;97215.25;5037444;28;20041;-81
2021/06/20 11:06:53;;;;;;;32.58;6.40;;;;;;;29.86;100.00;97239.44;5019550;28;20064;-80
2021/06/20 11:09:22;;;;;;;28.80;5.95;;;;;;;30.27;96.16;97243.97;5003254;28;20049;-81
2021/06/20 11:11:51;;;;;;;29.60;6.18;;;;;;;30.48;91.42;97236.84;5004001;28;20056;-82
2021/06/20 11:14:19;;;;;;;27.92;6.13;;;;;;;30.52;87.23;97232.69;5004618;28;20482;-83
2021/06/20 11:16:47;;;;;;;25.08;6.30;;;;;;;30.58;76.52;97221.69;5018126;28;20042;-82
2021/06/20 11:19:27;;;;;;;24.58;6.13;;;;;;;30.16;93.88;97221.22;4999652;28;20341;-82
2021/06/20 11:22:03;;;;;;;24.30;6.60;;;;;;;30.09;100.00;97210.31;5018412;28;20451;-84